sensor_id;sensor_type;location;lat;lon;timestamp;P1;durP1;ratioP1;P2;durP2;ratioP2
65377;SDS011;51982;51.042;13.806;2023-12-20T00:01:01;2.55;;;1.80;;
65377;SDS011;51982;51.042;13.806;2023-12-20T00:03:26;3.03;;;2.15;;
65377;SDS011;51982;51.042;13.806;2023-12-20T00:05:52;4.00;;;2.13;;
65377;SDS011;51982;51.042;13.806;2023-12-20T00:08:17;2.22;;;1.67;;
65377;SDS011;51982;51.042;13.806;2023-12-20T00:10:43;2.58;;;1.90;;
65377;SDS011;51982;51.042;13.806;2023-12-20T00:13:08;3.10;;;2.30;;
65377;SDS011;51982;51.042;13.806;2023-12-20T00:15:34;2.33;;;1.85;;
65377;SDS011;51982;51.042;13.806;2023-12-20T00:17:59;2.70;;;2.13;;
65377;SDS011;51982;51.042;13.806;2023-12-20T00:20:25;2.25;;;1.88;;
65377;SDS011;51982;51.042;13.806;2023-12-20T00:22:51;2.97;;;2.13;;
65377;SDS011;51982;51.042;13.806;2023-12-20T00:25:16;2.53;;;1.80;;
65377;SDS011;51982;51.042;13.806;2023-12-20T00:27:41;2.60;;;1.95;;
65377;SDS011;51982;51.042;13.806;2023-12-20T00:30:07;2.70;;;2.10;;
65377;SDS011;51982;51.042;13.806;2023-12-20T00:32:33;2.70;;;1.90;;
65377;SDS011;51982;51.042;13.806;2023-12-20T00:34:58;2.33;;;1.70;;
65377;SDS011;51982;51.042;13.806;2023-12-20T00:37:23;6.50;;;1.60;;
65377;SDS011;51982;51.042;13.806;2023-12-20T00:39:49;2.72;;;1.70;;
65377;SDS011;51982;51.042;13.806;2023-12-20T00:42:14;2.43;;;1.60;;
65377;SDS011;51982;51.042;13.806;2023-12-20T00:44:39;3.33;;;1.67;;
65377;SDS011;51982;51.042;13.806;2023-12-20T00:47:05;2.90;;;1.80;;
65377;SDS011;51982;51.042;13.806;2023-12-20T00:49:30;2.30;;;1.73;;
65377;SDS011;51982;51.042;13.806;2023-12-20T00:51:58;3.28;;;1.80;;
65377;SDS011;51982;51.042;13.806;2023-12-20T00:54:23;2.07;;;1.67;;
65377;SDS011;51982;51.042;13.806;2023-12-20T00:56:48;1.70;;;1.20;;
65377;SDS011;51982;51.042;13.806;2023-12-20T00:59:13;1.95;;;1.48;;
65377;SDS011;51982;51.042;13.806;2023-12-20T01:01:39;2.53;;;1.55;;
65377;SDS011;51982;51.042;13.806;2023-12-20T01:04:05;2.25;;;1.50;;
65377;SDS011;51982;51.042;13.806;2023-12-20T01:06:30;3.63;;;1.50;;
65377;SDS011;51982;51.042;13.806;2023-12-20T01:08:55;2.10;;;1.30;;
65377;SDS011;51982;51.042;13.806;2023-12-20T01:11:20;1.90;;;1.40;;
65377;SDS011;51982;51.042;13.806;2023-12-20T01:13:46;1.80;;;1.40;;
65377;SDS011;51982;51.042;13.806;2023-12-20T01:16:11;1.60;;;1.27;;
65377;SDS011;51982;51.042;13.806;2023-12-20T01:18:37;1.83;;;1.35;;
65377;SDS011;51982;51.042;13.806;2023-12-20T01:21:03;1.70;;;1.30;;
65377;SDS011;51982;51.042;13.806;2023-12-20T01:23:28;1.80;;;1.27;;
65377;SDS011;51982;51.042;13.806;2023-12-20T01:25:54;1.13;;;1.00;;
65377;SDS011;51982;51.042;13.806;2023-12-20T01:28:19;1.42;;;1.20;;
65377;SDS011;51982;51.042;13.806;2023-12-20T01:30:44;1.70;;;1.20;;
65377;SDS011;51982;51.042;13.806;2023-12-20T01:33:10;1.50;;;1.10;;
65377;SDS011;51982;51.042;13.806;2023-12-20T01:35:35;1.50;;;1.13;;
65377;SDS011;51982;51.042;13.806;2023-12-20T01:38:00;1.20;;;1.00;;
65377;SDS011;51982;51.042;13.806;2023-12-20T01:40:25;1.43;;;1.20;;
65377;SDS011;51982;51.042;13.806;2023-12-20T01:43:00;2.28;;;1.20;;
65377;SDS011;51982;51.042;13.806;2023-12-20T01:45:29;1.80;;;1.00;;
65377;SDS011;51982;51.042;13.806;2023-12-20T01:47:55;1.45;;;1.10;;
65377;SDS011;51982;51.042;13.806;2023-12-20T01:50:22;1.15;;;1.00;;
65377;SDS011;51982;51.042;13.806;2023-12-20T01:52:48;1.02;;;0.93;;
65377;SDS011;51982;51.042;13.806;2023-12-20T01:55:14;1.10;;;0.93;;
65377;SDS011;51982;51.042;13.806;2023-12-20T01:57:40;1.13;;;0.90;;
65377;SDS011;51982;51.042;13.806;2023-12-20T02:00:07;1.10;;;0.95;;
65377;SDS011;51982;51.042;13.806;2023-12-20T02:02:34;1.40;;;1.10;;
65377;SDS011;51982;51.042;13.806;2023-12-20T02:05:04;1.17;;;0.90;;
65377;SDS011;51982;51.042;13.806;2023-12-20T02:07:31;1.13;;;0.90;;
65377;SDS011;51982;51.042;13.806;2023-12-20T02:09:56;1.02;;;0.90;;
65377;SDS011;51982;51.042;13.806;2023-12-20T02:12:21;1.08;;;0.90;;
65377;SDS011;51982;51.042;13.806;2023-12-20T02:14:47;1.05;;;0.82;;
65377;SDS011;51982;51.042;13.806;2023-12-20T02:17:12;0.90;;;0.70;;
65377;SDS011;51982;51.042;13.806;2023-12-20T02:19:37;1.10;;;0.93;;
65377;SDS011;51982;51.042;13.806;2023-12-20T02:22:06;0.67;;;0.67;;
65377;SDS011;51982;51.042;13.806;2023-12-20T02:24:38;0.95;;;0.85;;
65377;SDS011;51982;51.042;13.806;2023-12-20T02:27:04;1.05;;;0.90;;
65377;SDS011;51982;51.042;13.806;2023-12-20T02:29:31;0.93;;;0.77;;
65377;SDS011;51982;51.042;13.806;2023-12-20T02:31:57;0.60;;;0.60;;
65377;SDS011;51982;51.042;13.806;2023-12-20T02:34:23;0.80;;;0.80;;
65377;SDS011;51982;51.042;13.806;2023-12-20T02:36:48;1.10;;;0.82;;
65377;SDS011;51982;51.042;13.806;2023-12-20T02:39:13;0.70;;;0.70;;
65377;SDS011;51982;51.042;13.806;2023-12-20T02:41:43;0.80;;;0.73;;
65377;SDS011;51982;51.042;13.806;2023-12-20T02:44:08;0.70;;;0.70;;
65377;SDS011;51982;51.042;13.806;2023-12-20T02:46:33;0.63;;;0.63;;
65377;SDS011;51982;51.042;13.806;2023-12-20T02:48:58;1.07;;;0.60;;
65377;SDS011;51982;51.042;13.806;2023-12-20T02:51:24;0.83;;;0.70;;
65377;SDS011;51982;51.042;13.806;2023-12-20T02:53:49;2.00;;;0.67;;
65377;SDS011;51982;51.042;13.806;2023-12-20T02:56:14;0.50;;;0.50;;
65377;SDS011;51982;51.042;13.806;2023-12-20T02:58:39;0.82;;;0.70;;
65377;SDS011;51982;51.042;13.806;2023-12-20T03:01:05;1.17;;;0.70;;
65377;SDS011;51982;51.042;13.806;2023-12-20T03:03:31;0.70;;;0.70;;
65377;SDS011;51982;51.042;13.806;2023-12-20T03:05:56;1.83;;;0.50;;
65377;SDS011;51982;51.042;13.806;2023-12-20T03:08:21;0.40;;;0.40;;
65377;SDS011;51982;51.042;13.806;2023-12-20T03:10:47;0.70;;;0.60;;
65377;SDS011;51982;51.042;13.806;2023-12-20T03:13:12;0.60;;;0.60;;
65377;SDS011;51982;51.042;13.806;2023-12-20T03:15:37;0.80;;;0.70;;
65377;SDS011;51982;51.042;13.806;2023-12-20T03:18:02;0.60;;;0.60;;
65377;SDS011;51982;51.042;13.806;2023-12-20T03:20:28;0.65;;;0.55;;
65377;SDS011;51982;51.042;13.806;2023-12-20T03:22:53;0.80;;;0.65;;
65377;SDS011;51982;51.042;13.806;2023-12-20T03:25:18;5.85;;;0.70;;
65377;SDS011;51982;51.042;13.806;2023-12-20T03:27:43;0.63;;;0.63;;
65377;SDS011;51982;51.042;13.806;2023-12-20T03:30:09;0.60;;;0.57;;
65377;SDS011;51982;51.042;13.806;2023-12-20T03:32:34;0.80;;;0.60;;
65377;SDS011;51982;51.042;13.806;2023-12-20T03:35:00;1.15;;;0.68;;
65377;SDS011;51982;51.042;13.806;2023-12-20T03:37:25;0.60;;;0.60;;
65377;SDS011;51982;51.042;13.806;2023-12-20T03:39:50;0.52;;;0.52;;
65377;SDS011;51982;51.042;13.806;2023-12-20T03:42:15;2.05;;;0.47;;
65377;SDS011;51982;51.042;13.806;2023-12-20T03:44:41;0.40;;;0.40;;
65377;SDS011;51982;51.042;13.806;2023-12-20T03:47:06;0.57;;;0.57;;
65377;SDS011;51982;51.042;13.806;2023-12-20T03:49:31;0.40;;;0.40;;
65377;SDS011;51982;51.042;13.806;2023-12-20T03:51:56;0.43;;;0.43;;
65377;SDS011;51982;51.042;13.806;2023-12-20T03:54:22;0.40;;;0.40;;
65377;SDS011;51982;51.042;13.806;2023-12-20T03:56:47;1.65;;;0.50;;
65377;SDS011;51982;51.042;13.806;2023-12-20T03:59:12;0.70;;;0.53;;
65377;SDS011;51982;51.042;13.806;2023-12-20T04:01:37;0.43;;;0.43;;
65377;SDS011;51982;51.042;13.806;2023-12-20T04:04:03;0.50;;;0.50;;
65377;SDS011;51982;51.042;13.806;2023-12-20T04:06:28;0.55;;;0.55;;
65377;SDS011;51982;51.042;13.806;2023-12-20T04:08:53;0.75;;;0.65;;
65377;SDS011;51982;51.042;13.806;2023-12-20T04:11:19;0.90;;;0.40;;
65377;SDS011;51982;51.042;13.806;2023-12-20T04:13:44;0.47;;;0.47;;
65377;SDS011;51982;51.042;13.806;2023-12-20T04:16:09;1.23;;;0.75;;
65377;SDS011;51982;51.042;13.806;2023-12-20T04:18:34;0.73;;;0.65;;
65377;SDS011;51982;51.042;13.806;2023-12-20T04:21:00;0.60;;;0.60;;
65377;SDS011;51982;51.042;13.806;2023-12-20T04:23:25;0.50;;;0.50;;
65377;SDS011;51982;51.042;13.806;2023-12-20T04:25:50;0.53;;;0.50;;
65377;SDS011;51982;51.042;13.806;2023-12-20T04:28:15;0.60;;;0.50;;
65377;SDS011;51982;51.042;13.806;2023-12-20T04:30:41;0.47;;;0.40;;
65377;SDS011;51982;51.042;13.806;2023-12-20T04:33:07;0.40;;;0.40;;
65377;SDS011;51982;51.042;13.806;2023-12-20T04:35:32;0.52;;;0.52;;
65377;SDS011;51982;51.042;13.806;2023-12-20T04:37:57;1.05;;;0.60;;
65377;SDS011;51982;51.042;13.806;2023-12-20T04:40:22;0.50;;;0.50;;
65377;SDS011;51982;51.042;13.806;2023-12-20T04:42:47;1.20;;;0.47;;
65377;SDS011;51982;51.042;13.806;2023-12-20T04:45:13;0.60;;;0.60;;
65377;SDS011;51982;51.042;13.806;2023-12-20T04:47:41;0.77;;;0.50;;
65377;SDS011;51982;51.042;13.806;2023-12-20T04:50:07;0.13;;;0.13;;
65377;SDS011;51982;51.042;13.806;2023-12-20T04:52:33;0.50;;;0.50;;
65377;SDS011;51982;51.042;13.806;2023-12-20T04:54:58;0.75;;;0.60;;
65377;SDS011;51982;51.042;13.806;2023-12-20T04:57:24;0.50;;;0.50;;
65377;SDS011;51982;51.042;13.806;2023-12-20T04:59:49;0.65;;;0.55;;
65377;SDS011;51982;51.042;13.806;2023-12-20T05:02:14;1.80;;;0.60;;
65377;SDS011;51982;51.042;13.806;2023-12-20T05:04:40;0.60;;;0.60;;
65377;SDS011;51982;51.042;13.806;2023-12-20T05:07:06;0.82;;;0.52;;
65377;SDS011;51982;51.042;13.806;2023-12-20T05:09:31;0.50;;;0.50;;
65377;SDS011;51982;51.042;13.806;2023-12-20T05:11:56;0.60;;;0.60;;
65377;SDS011;51982;51.042;13.806;2023-12-20T05:14:22;0.50;;;0.50;;
65377;SDS011;51982;51.042;13.806;2023-12-20T05:16:47;1.00;;;0.87;;
65377;SDS011;51982;51.042;13.806;2023-12-20T05:19:12;0.83;;;0.83;;
65377;SDS011;51982;51.042;13.806;2023-12-20T05:21:37;0.60;;;0.60;;
65377;SDS011;51982;51.042;13.806;2023-12-20T05:24:02;0.70;;;0.60;;
65377;SDS011;51982;51.042;13.806;2023-12-20T05:26:28;0.73;;;0.73;;
65377;SDS011;51982;51.042;13.806;2023-12-20T05:28:54;0.80;;;0.80;;
65377;SDS011;51982;51.042;13.806;2023-12-20T05:31:19;1.52;;;0.80;;
65377;SDS011;51982;51.042;13.806;2023-12-20T05:33:45;0.83;;;0.57;;
65377;SDS011;51982;51.042;13.806;2023-12-20T05:36:10;1.25;;;0.70;;
65377;SDS011;51982;51.042;13.806;2023-12-20T05:38:36;3.05;;;0.60;;
65377;SDS011;51982;51.042;13.806;2023-12-20T05:41:02;0.60;;;0.60;;
65377;SDS011;51982;51.042;13.806;2023-12-20T05:43:27;0.50;;;0.50;;
65377;SDS011;51982;51.042;13.806;2023-12-20T05:45:52;0.73;;;0.50;;
65377;SDS011;51982;51.042;13.806;2023-12-20T05:48:17;0.80;;;0.53;;
65377;SDS011;51982;51.042;13.806;2023-12-20T05:50:42;0.37;;;0.37;;
65377;SDS011;51982;51.042;13.806;2023-12-20T05:53:08;0.77;;;0.50;;
65377;SDS011;51982;51.042;13.806;2023-12-20T05:55:33;0.40;;;0.40;;
65377;SDS011;51982;51.042;13.806;2023-12-20T05:57:59;0.50;;;0.50;;
65377;SDS011;51982;51.042;13.806;2023-12-20T06:00:24;1.23;;;0.50;;
65377;SDS011;51982;51.042;13.806;2023-12-20T06:02:50;0.80;;;0.60;;
65377;SDS011;51982;51.042;13.806;2023-12-20T06:05:15;0.50;;;0.45;;
65377;SDS011;51982;51.042;13.806;2023-12-20T06:07:40;0.40;;;0.40;;
65377;SDS011;51982;51.042;13.806;2023-12-20T06:10:06;0.40;;;0.40;;
65377;SDS011;51982;51.042;13.806;2023-12-20T06:12:31;0.68;;;0.50;;
65377;SDS011;51982;51.042;13.806;2023-12-20T06:14:58;0.70;;;0.63;;
65377;SDS011;51982;51.042;13.806;2023-12-20T06:17:23;1.15;;;0.80;;
65377;SDS011;51982;51.042;13.806;2023-12-20T06:19:48;0.85;;;0.80;;
65377;SDS011;51982;51.042;13.806;2023-12-20T06:22:14;0.70;;;0.70;;
65377;SDS011;51982;51.042;13.806;2023-12-20T06:24:40;1.02;;;0.90;;
65377;SDS011;51982;51.042;13.806;2023-12-20T06:27:05;0.70;;;0.70;;
65377;SDS011;51982;51.042;13.806;2023-12-20T06:29:30;0.60;;;0.60;;
65377;SDS011;51982;51.042;13.806;2023-12-20T06:31:56;0.63;;;0.60;;
65377;SDS011;51982;51.042;13.806;2023-12-20T06:34:21;2.93;;;0.70;;
65377;SDS011;51982;51.042;13.806;2023-12-20T06:36:46;1.63;;;0.60;;
65377;SDS011;51982;51.042;13.806;2023-12-20T06:39:11;0.77;;;0.77;;
65377;SDS011;51982;51.042;13.806;2023-12-20T06:41:37;0.80;;;0.80;;
65377;SDS011;51982;51.042;13.806;2023-12-20T06:44:03;0.70;;;0.70;;
65377;SDS011;51982;51.042;13.806;2023-12-20T06:46:28;1.02;;;0.93;;
65377;SDS011;51982;51.042;13.806;2023-12-20T06:48:53;0.93;;;0.87;;
65377;SDS011;51982;51.042;13.806;2023-12-20T06:51:18;1.00;;;0.87;;
65377;SDS011;51982;51.042;13.806;2023-12-20T06:53:45;0.90;;;0.73;;
65377;SDS011;51982;51.042;13.806;2023-12-20T06:56:10;1.08;;;1.00;;
65377;SDS011;51982;51.042;13.806;2023-12-20T06:58:36;1.27;;;1.10;;
65377;SDS011;51982;51.042;13.806;2023-12-20T07:01:02;1.30;;;0.93;;
65377;SDS011;51982;51.042;13.806;2023-12-20T07:03:30;0.80;;;0.80;;
65377;SDS011;51982;51.042;13.806;2023-12-20T07:15:40;2.40;;;1.20;;
65377;SDS011;51982;51.042;13.806;2023-12-20T07:18:38;2.63;;;1.20;;
65377;SDS011;51982;51.042;13.806;2023-12-20T07:21:21;2.05;;;1.30;;
65377;SDS011;51982;51.042;13.806;2023-12-20T07:27:07;1.60;;;1.30;;
65377;SDS011;51982;51.042;13.806;2023-12-20T07:30:15;2.40;;;1.30;;
65377;SDS011;51982;51.042;13.806;2023-12-20T07:32:52;1.40;;;1.30;;
65377;SDS011;51982;51.042;13.806;2023-12-20T07:38:57;1.35;;;1.25;;
65377;SDS011;51982;51.042;13.806;2023-12-20T07:41:22;2.25;;;1.60;;
65377;SDS011;51982;51.042;13.806;2023-12-20T07:44:25;3.95;;;1.42;;
65377;SDS011;51982;51.042;13.806;2023-12-20T07:48:05;2.05;;;1.38;;
65377;SDS011;51982;51.042;13.806;2023-12-20T07:55:08;2.88;;;1.65;;
65377;SDS011;51982;51.042;13.806;2023-12-20T08:10:38;2.72;;;1.65;;
65377;SDS011;51982;51.042;13.806;2023-12-20T08:41:50;2.92;;;1.35;;
65377;SDS011;51982;51.042;13.806;2023-12-20T08:53:47;1.25;;;0.85;;
65377;SDS011;51982;51.042;13.806;2023-12-20T09:00:11;1.55;;;0.88;;
65377;SDS011;51982;51.042;13.806;2023-12-20T09:16:53;1.90;;;0.85;;
65377;SDS011;51982;51.042;13.806;2023-12-20T09:19:20;1.55;;;0.70;;
65377;SDS011;51982;51.042;13.806;2023-12-20T09:21:46;2.07;;;0.70;;
65377;SDS011;51982;51.042;13.806;2023-12-20T09:24:11;2.10;;;0.97;;
65377;SDS011;51982;51.042;13.806;2023-12-20T09:26:36;2.35;;;0.90;;
65377;SDS011;51982;51.042;13.806;2023-12-20T09:29:01;1.92;;;0.75;;
65377;SDS011;51982;51.042;13.806;2023-12-20T09:31:26;1.25;;;0.63;;
65377;SDS011;51982;51.042;13.806;2023-12-20T09:33:52;1.77;;;0.90;;
65377;SDS011;51982;51.042;13.806;2023-12-20T09:36:17;0.60;;;0.52;;
65377;SDS011;51982;51.042;13.806;2023-12-20T09:38:42;1.23;;;0.93;;
65377;SDS011;51982;51.042;13.806;2023-12-20T09:41:07;2.00;;;0.70;;
65377;SDS011;51982;51.042;13.806;2023-12-20T09:43:33;3.13;;;0.70;;
65377;SDS011;51982;51.042;13.806;2023-12-20T09:46:02;2.47;;;0.80;;
65377;SDS011;51982;51.042;13.806;2023-12-20T09:48:30;2.13;;;0.90;;
65377;SDS011;51982;51.042;13.806;2023-12-20T09:50:56;3.78;;;1.00;;
65377;SDS011;51982;51.042;13.806;2023-12-20T09:53:21;2.53;;;0.90;;
65377;SDS011;51982;51.042;13.806;2023-12-20T09:55:54;3.22;;;1.00;;
65377;SDS011;51982;51.042;13.806;2023-12-20T09:58:20;0.65;;;0.60;;
65377;SDS011;51982;51.042;13.806;2023-12-20T10:00:45;1.03;;;0.87;;
65377;SDS011;51982;51.042;13.806;2023-12-20T10:03:11;1.42;;;0.85;;
65377;SDS011;51982;51.042;13.806;2023-12-20T10:05:39;4.45;;;1.10;;
65377;SDS011;51982;51.042;13.806;2023-12-20T10:08:09;1.63;;;0.77;;
65377;SDS011;51982;51.042;13.806;2023-12-20T10:10:34;4.63;;;0.97;;
65377;SDS011;51982;51.042;13.806;2023-12-20T10:15:29;1.40;;;0.90;;
65377;SDS011;51982;51.042;13.806;2023-12-20T10:17:54;2.47;;;0.75;;
65377;SDS011;51982;51.042;13.806;2023-12-20T10:20:20;1.88;;;0.90;;
65377;SDS011;51982;51.042;13.806;2023-12-20T10:22:45;1.92;;;0.90;;
65377;SDS011;51982;51.042;13.806;2023-12-20T10:25:11;1.90;;;0.90;;
65377;SDS011;51982;51.042;13.806;2023-12-20T10:27:39;4.57;;;1.10;;
65377;SDS011;51982;51.042;13.806;2023-12-20T10:30:04;6.15;;;1.10;;
65377;SDS011;51982;51.042;13.806;2023-12-20T10:32:30;1.27;;;0.80;;
65377;SDS011;51982;51.042;13.806;2023-12-20T10:34:56;4.65;;;0.90;;
65377;SDS011;51982;51.042;13.806;2023-12-20T10:37:21;2.35;;;0.82;;
65377;SDS011;51982;51.042;13.806;2023-12-20T10:39:51;3.90;;;0.90;;
65377;SDS011;51982;51.042;13.806;2023-12-20T10:42:26;1.50;;;0.90;;
65377;SDS011;51982;51.042;13.806;2023-12-20T10:44:52;0.98;;;0.77;;
65377;SDS011;51982;51.042;13.806;2023-12-20T10:47:18;4.35;;;1.15;;
65377;SDS011;51982;51.042;13.806;2023-12-20T10:49:44;4.63;;;1.15;;
65377;SDS011;51982;51.042;13.806;2023-12-20T10:52:11;22.77;;;2.50;;
65377;SDS011;51982;51.042;13.806;2023-12-20T10:54:36;5.43;;;1.50;;
65377;SDS011;51982;51.042;13.806;2023-12-20T10:57:03;3.00;;;1.05;;
65377;SDS011;51982;51.042;13.806;2023-12-20T10:59:30;1.55;;;0.75;;
65377;SDS011;51982;51.042;13.806;2023-12-20T11:01:58;6.13;;;1.10;;
65377;SDS011;51982;51.042;13.806;2023-12-20T11:04:25;2.58;;;1.10;;
65377;SDS011;51982;51.042;13.806;2023-12-20T11:07:07;2.45;;;0.98;;
65377;SDS011;51982;51.042;13.806;2023-12-20T11:09:53;3.65;;;1.42;;
65377;SDS011;51982;51.042;13.806;2023-12-20T11:13:27;2.33;;;1.20;;
65377;SDS011;51982;51.042;13.806;2023-12-20T11:15:34;1.90;;;0.82;;
65377;SDS011;51982;51.042;13.806;2023-12-20T11:18:00;4.13;;;1.15;;
65377;SDS011;51982;51.042;13.806;2023-12-20T11:20:35;1.50;;;0.80;;
65377;SDS011;51982;51.042;13.806;2023-12-20T11:23:02;4.50;;;0.82;;
65377;SDS011;51982;51.042;13.806;2023-12-20T11:25:27;4.25;;;1.17;;
65377;SDS011;51982;51.042;13.806;2023-12-20T11:28:11;1.63;;;0.82;;
65377;SDS011;51982;51.042;13.806;2023-12-20T11:33:15;1.67;;;0.90;;
65377;SDS011;51982;51.042;13.806;2023-12-20T11:35:41;5.18;;;1.13;;
65377;SDS011;51982;51.042;13.806;2023-12-20T11:38:09;5.68;;;1.10;;
65377;SDS011;51982;51.042;13.806;2023-12-20T11:40:35;3.33;;;1.02;;
65377;SDS011;51982;51.042;13.806;2023-12-20T11:43:01;1.70;;;1.00;;
65377;SDS011;51982;51.042;13.806;2023-12-20T11:45:27;2.47;;;0.90;;
65377;SDS011;51982;51.042;13.806;2023-12-20T11:47:52;4.00;;;1.05;;
65377;SDS011;51982;51.042;13.806;2023-12-20T11:50:21;2.53;;;1.00;;
65377;SDS011;51982;51.042;13.806;2023-12-20T11:52:48;3.40;;;0.98;;
65377;SDS011;51982;51.042;13.806;2023-12-20T11:55:14;5.75;;;1.55;;
65377;SDS011;51982;51.042;13.806;2023-12-20T11:57:39;2.25;;;1.05;;
65377;SDS011;51982;51.042;13.806;2023-12-20T12:00:05;6.20;;;1.63;;
65377;SDS011;51982;51.042;13.806;2023-12-20T12:02:31;4.55;;;1.25;;
65377;SDS011;51982;51.042;13.806;2023-12-20T12:04:57;3.50;;;0.90;;
65377;SDS011;51982;51.042;13.806;2023-12-20T12:07:23;2.13;;;0.95;;
65377;SDS011;51982;51.042;13.806;2023-12-20T12:09:49;3.13;;;0.90;;
65377;SDS011;51982;51.042;13.806;2023-12-20T12:12:14;3.08;;;1.00;;
65377;SDS011;51982;51.042;13.806;2023-12-20T12:14:40;4.88;;;1.25;;
65377;SDS011;51982;51.042;13.806;2023-12-20T12:17:09;2.88;;;0.90;;
65377;SDS011;51982;51.042;13.806;2023-12-20T12:19:39;26.52;;;2.35;;
65377;SDS011;51982;51.042;13.806;2023-12-20T12:22:05;2.63;;;1.15;;
65377;SDS011;51982;51.042;13.806;2023-12-20T12:24:37;2.53;;;1.10;;
65377;SDS011;51982;51.042;13.806;2023-12-20T12:27:03;1.98;;;1.23;;
65377;SDS011;51982;51.042;13.806;2023-12-20T12:29:30;1.95;;;1.08;;
65377;SDS011;51982;51.042;13.806;2023-12-20T12:31:55;2.03;;;0.87;;
65377;SDS011;51982;51.042;13.806;2023-12-20T12:34:21;2.80;;;1.10;;
65377;SDS011;51982;51.042;13.806;2023-12-20T12:36:46;1.58;;;0.90;;
65377;SDS011;51982;51.042;13.806;2023-12-20T12:39:13;3.35;;;0.90;;
65377;SDS011;51982;51.042;13.806;2023-12-20T12:41:40;3.10;;;0.90;;
65377;SDS011;51982;51.042;13.806;2023-12-20T12:44:05;4.05;;;1.27;;
65377;SDS011;51982;51.042;13.806;2023-12-20T12:46:30;2.10;;;0.90;;
65377;SDS011;51982;51.042;13.806;2023-12-20T12:48:56;2.78;;;1.05;;
65377;SDS011;51982;51.042;13.806;2023-12-20T12:51:21;1.27;;;0.73;;
65377;SDS011;51982;51.042;13.806;2023-12-20T12:53:46;2.00;;;0.90;;
65377;SDS011;51982;51.042;13.806;2023-12-20T12:56:12;3.37;;;0.90;;
65377;SDS011;51982;51.042;13.806;2023-12-20T12:58:38;6.05;;;1.15;;
65377;SDS011;51982;51.042;13.806;2023-12-20T13:01:04;4.63;;;1.20;;
65377;SDS011;51982;51.042;13.806;2023-12-20T13:03:29;1.33;;;0.70;;
65377;SDS011;51982;51.042;13.806;2023-12-20T13:05:54;4.17;;;0.93;;
65377;SDS011;51982;51.042;13.806;2023-12-20T13:08:20;3.80;;;1.00;;
65377;SDS011;51982;51.042;13.806;2023-12-20T13:10:45;2.67;;;1.05;;
65377;SDS011;51982;51.042;13.806;2023-12-20T13:13:10;2.17;;;0.80;;
65377;SDS011;51982;51.042;13.806;2023-12-20T13:15:36;3.13;;;1.08;;
65377;SDS011;51982;51.042;13.806;2023-12-20T13:18:01;4.25;;;1.30;;
65377;SDS011;51982;51.042;13.806;2023-12-20T13:20:26;2.45;;;1.02;;
65377;SDS011;51982;51.042;13.806;2023-12-20T13:22:51;1.83;;;1.02;;
65377;SDS011;51982;51.042;13.806;2023-12-20T13:25:16;3.57;;;1.20;;
65377;SDS011;51982;51.042;13.806;2023-12-20T13:27:42;2.27;;;0.80;;
65377;SDS011;51982;51.042;13.806;2023-12-20T13:30:07;3.60;;;1.10;;
65377;SDS011;51982;51.042;13.806;2023-12-20T13:32:33;3.25;;;1.05;;
65377;SDS011;51982;51.042;13.806;2023-12-20T13:34:58;4.18;;;0.90;;
65377;SDS011;51982;51.042;13.806;2023-12-20T13:37:23;3.15;;;0.80;;
65377;SDS011;51982;51.042;13.806;2023-12-20T13:39:48;2.10;;;0.85;;
65377;SDS011;51982;51.042;13.806;2023-12-20T13:42:14;2.53;;;1.10;;
65377;SDS011;51982;51.042;13.806;2023-12-20T13:44:39;2.78;;;1.20;;
65377;SDS011;51982;51.042;13.806;2023-12-20T13:47:04;2.53;;;0.95;;
65377;SDS011;51982;51.042;13.806;2023-12-20T13:49:31;4.10;;;1.52;;
65377;SDS011;51982;51.042;13.806;2023-12-20T13:51:56;3.83;;;1.02;;
65377;SDS011;51982;51.042;13.806;2023-12-20T13:54:22;4.95;;;1.23;;
65377;SDS011;51982;51.042;13.806;2023-12-20T13:56:47;4.53;;;1.00;;
65377;SDS011;51982;51.042;13.806;2023-12-20T13:59:14;4.18;;;1.20;;
65377;SDS011;51982;51.042;13.806;2023-12-20T14:01:40;2.85;;;0.95;;
65377;SDS011;51982;51.042;13.806;2023-12-20T14:04:05;3.05;;;1.00;;
65377;SDS011;51982;51.042;13.806;2023-12-20T14:06:31;2.15;;;0.90;;
65377;SDS011;51982;51.042;13.806;2023-12-20T14:08:57;3.50;;;1.02;;
65377;SDS011;51982;51.042;13.806;2023-12-20T14:11:25;2.08;;;0.82;;
65377;SDS011;51982;51.042;13.806;2023-12-20T14:13:50;4.13;;;1.10;;
65377;SDS011;51982;51.042;13.806;2023-12-20T14:16:15;2.97;;;0.90;;
65377;SDS011;51982;51.042;13.806;2023-12-20T14:18:41;1.80;;;1.02;;
65377;SDS011;51982;51.042;13.806;2023-12-20T14:21:06;3.30;;;1.10;;
65377;SDS011;51982;51.042;13.806;2023-12-20T14:23:32;2.37;;;0.93;;
65377;SDS011;51982;51.042;13.806;2023-12-20T14:25:58;3.08;;;1.20;;
65377;SDS011;51982;51.042;13.806;2023-12-20T14:28:24;2.45;;;0.98;;
65377;SDS011;51982;51.042;13.806;2023-12-20T14:30:49;2.50;;;0.90;;
65377;SDS011;51982;51.042;13.806;2023-12-20T14:33:15;3.22;;;1.05;;
65377;SDS011;51982;51.042;13.806;2023-12-20T14:35:40;4.17;;;1.00;;
65377;SDS011;51982;51.042;13.806;2023-12-20T14:38:07;3.25;;;1.00;;
65377;SDS011;51982;51.042;13.806;2023-12-20T14:40:33;2.22;;;0.98;;
65377;SDS011;51982;51.042;13.806;2023-12-20T14:42:58;2.80;;;0.90;;
65377;SDS011;51982;51.042;13.806;2023-12-20T14:45:24;1.50;;;0.70;;
65377;SDS011;51982;51.042;13.806;2023-12-20T14:47:49;1.85;;;0.90;;
65377;SDS011;51982;51.042;13.806;2023-12-20T14:50:14;3.80;;;0.98;;
65377;SDS011;51982;51.042;13.806;2023-12-20T14:52:43;3.03;;;0.73;;
65377;SDS011;51982;51.042;13.806;2023-12-20T14:55:10;4.65;;;1.40;;
65377;SDS011;51982;51.042;13.806;2023-12-20T14:57:35;4.50;;;1.30;;
65377;SDS011;51982;51.042;13.806;2023-12-20T15:00:00;2.10;;;1.00;;
65377;SDS011;51982;51.042;13.806;2023-12-20T15:02:25;3.70;;;0.95;;
65377;SDS011;51982;51.042;13.806;2023-12-20T15:04:51;1.77;;;0.90;;
65377;SDS011;51982;51.042;13.806;2023-12-20T15:07:16;6.15;;;2.35;;
65377;SDS011;51982;51.042;13.806;2023-12-20T15:09:42;5.38;;;1.55;;
65377;SDS011;51982;51.042;13.806;2023-12-20T15:12:10;2.72;;;1.15;;
65377;SDS011;51982;51.042;13.806;2023-12-20T15:14:36;3.47;;;1.10;;
65377;SDS011;51982;51.042;13.806;2023-12-20T15:17:01;1.50;;;0.80;;
65377;SDS011;51982;51.042;13.806;2023-12-20T15:19:26;1.88;;;0.60;;
65377;SDS011;51982;51.042;13.806;2023-12-20T15:21:51;4.70;;;1.20;;
65377;SDS011;51982;51.042;13.806;2023-12-20T15:24:17;2.85;;;0.90;;
65377;SDS011;51982;51.042;13.806;2023-12-20T15:26:45;4.40;;;1.00;;
65377;SDS011;51982;51.042;13.806;2023-12-20T15:29:11;2.28;;;0.80;;
65377;SDS011;51982;51.042;13.806;2023-12-20T15:31:41;1.83;;;0.73;;
65377;SDS011;51982;51.042;13.806;2023-12-20T15:34:10;2.50;;;1.00;;
65377;SDS011;51982;51.042;13.806;2023-12-20T15:36:36;2.20;;;0.77;;
65377;SDS011;51982;51.042;13.806;2023-12-20T15:39:02;2.13;;;0.80;;
65377;SDS011;51982;51.042;13.806;2023-12-20T15:41:28;2.05;;;0.88;;
65377;SDS011;51982;51.042;13.806;2023-12-20T15:43:54;1.95;;;0.80;;
65377;SDS011;51982;51.042;13.806;2023-12-20T15:46:19;1.50;;;0.93;;
65377;SDS011;51982;51.042;13.806;2023-12-20T15:48:46;1.02;;;0.70;;
65377;SDS011;51982;51.042;13.806;2023-12-20T15:51:11;1.83;;;0.90;;
65377;SDS011;51982;51.042;13.806;2023-12-20T15:53:36;4.80;;;0.90;;
65377;SDS011;51982;51.042;13.806;2023-12-20T15:56:02;2.28;;;0.90;;
65377;SDS011;51982;51.042;13.806;2023-12-20T15:58:31;2.15;;;1.10;;
65377;SDS011;51982;51.042;13.806;2023-12-20T16:00:56;4.82;;;1.08;;
65377;SDS011;51982;51.042;13.806;2023-12-20T16:03:21;6.40;;;1.77;;
65377;SDS011;51982;51.042;13.806;2023-12-20T16:05:47;1.20;;;1.00;;